sensor_id;sensor_type;location;lat;lon;timestamp;pressure;altitude;pressure_sealevel;temperature;humidity
48364;BME280;34170;54.364;18.582;2023-11-19T00:00:11;100822.44;;;1.90;100.00
48364;BME280;34170;54.364;18.582;2023-11-19T00:03:00;100802.63;;;1.97;100.00
48364;BME280;34170;54.364;18.582;2023-11-19T00:05:29;100794.19;;;2.24;100.00
48364;BME280;34170;54.364;18.582;2023-11-19T00:07:57;100795.44;;;2.17;100.00
48364;BME280;34170;54.364;18.582;2023-11-19T00:10:24;100790.22;;;1.98;100.00
48364;BME280;34170;54.364;18.582;2023-11-19T00:12:52;100768.06;;;1.99;100.00
48364;BME280;34170;54.364;18.582;2023-11-19T00:15:20;100774.91;;;1.85;100.00
48364;BME280;34170;54.364;18.582;2023-11-19T00:17:48;100737.06;;;1.64;100.00
48364;BME280;34170;54.364;18.582;2023-11-19T00:20:20;100776.56;;;2.05;100.00
48364;BME280;34170;54.364;18.582;2023-11-19T00:22:49;100750.69;;;2.26;100.00
48364;BME280;34170;54.364;18.582;2023-11-19T00:25:21;100776.59;;;2.39;100.00
48364;BME280;34170;54.364;18.582;2023-11-19T00:27:53;100767.78;;;2.38;100.00
48364;BME280;34170;54.364;18.582;2023-11-19T00:30:21;100772.06;;;2.74;100.00
48364;BME280;34170;54.364;18.582;2023-11-19T00:32:49;100775.50;;;2.76;100.00
48364;BME280;34170;54.364;18.582;2023-11-19T00:35:16;100777.09;;;2.63;100.00
48364;BME280;34170;54.364;18.582;2023-11-19T00:37:44;100731.84;;;2.15;100.00
48364;BME280;34170;54.364;18.582;2023-11-19T00:40:13;100764.94;;;2.25;100.00
48364;BME280;34170;54.364;18.582;2023-11-19T00:42:44;100779.19;;;2.40;100.00
48364;BME280;34170;54.364;18.582;2023-11-19T00:45:11;100779.34;;;2.37;100.00
48364;BME280;34170;54.364;18.582;2023-11-19T00:47:40;100710.28;;;1.88;100.00
48364;BME280;34170;54.364;18.582;2023-11-19T00:50:08;100735.59;;;2.44;100.00
48364;BME280;34170;54.364;18.582;2023-11-19T00:52:40;100762.41;;;2.56;100.00
48364;BME280;34170;54.364;18.582;2023-11-19T00:55:09;100724.50;;;2.20;100.00
48364;BME280;34170;54.364;18.582;2023-11-19T00:57:37;100761.94;;;2.32;100.00
48364;BME280;34170;54.364;18.582;2023-11-19T01:00:05;100715.19;;;2.29;100.00
48364;BME280;34170;54.364;18.582;2023-11-19T01:02:46;100710.25;;;2.39;100.00
48364;BME280;34170;54.364;18.582;2023-11-19T01:05:17;100717.63;;;2.50;100.00
48364;BME280;34170;54.364;18.582;2023-11-19T01:07:49;100743.28;;;2.66;100.00
48364;BME280;34170;54.364;18.582;2023-11-19T01:10:16;100751.06;;;2.85;100.00
48364;BME280;34170;54.364;18.582;2023-11-19T01:12:46;100712.19;;;2.69;100.00
48364;BME280;34170;54.364;18.582;2023-11-19T01:15:13;100740.59;;;2.82;100.00
48364;BME280;34170;54.364;18.582;2023-11-19T01:17:41;100725.53;;;2.67;100.00
48364;BME280;34170;54.364;18.582;2023-11-19T01:20:19;100717.03;;;2.60;100.00
48364;BME280;34170;54.364;18.582;2023-11-19T01:22:49;100679.84;;;2.44;100.00
48364;BME280;34170;54.364;18.582;2023-11-19T01:25:17;100716.44;;;2.71;100.00
48364;BME280;34170;54.364;18.582;2023-11-19T01:27:45;100715.16;;;2.78;100.00
48364;BME280;34170;54.364;18.582;2023-11-19T01:30:12;100695.19;;;2.71;100.00
48364;BME280;34170;54.364;18.582;2023-11-19T01:32:40;100704.34;;;2.50;100.00
48364;BME280;34170;54.364;18.582;2023-11-19T01:35:08;100712.25;;;2.67;100.00
48364;BME280;34170;54.364;18.582;2023-11-19T01:37:36;100669.94;;;2.64;100.00
48364;BME280;34170;54.364;18.582;2023-11-19T01:40:04;100707.88;;;2.66;100.00
48364;BME280;34170;54.364;18.582;2023-11-19T01:42:38;100700.28;;;2.92;100.00
48364;BME280;34170;54.364;18.582;2023-11-19T01:45:06;100704.59;;;2.61;100.00
48364;BME280;34170;54.364;18.582;2023-11-19T01:47:38;100674.13;;;2.68;100.00
48364;BME280;34170;54.364;18.582;2023-11-19T01:50:06;100698.53;;;2.91;100.00
48364;BME280;34170;54.364;18.582;2023-11-19T01:52:35;100667.88;;;2.69;100.00
48364;BME280;34170;54.364;18.582;2023-11-19T01:55:06;100698.81;;;2.70;100.00
48364;BME280;34170;54.364;18.582;2023-11-19T01:57:36;100684.53;;;2.39;100.00
48364;BME280;34170;54.364;18.582;2023-11-19T02:00:07;100699.31;;;1.94;100.00
48364;BME280;34170;54.364;18.582;2023-11-19T02:02:43;100684.09;;;1.98;100.00
48364;BME280;34170;54.364;18.582;2023-11-19T02:05:12;100684.19;;;1.96;100.00
48364;BME280;34170;54.364;18.582;2023-11-19T02:07:41;100668.47;;;2.09;100.00
48364;BME280;34170;54.364;18.582;2023-11-19T02:10:09;100668.69;;;1.71;100.00
48364;BME280;34170;54.364;18.582;2023-11-19T02:12:41;100631.34;;;1.58;100.00
48364;BME280;34170;54.364;18.582;2023-11-19T02:15:12;100625.78;;;1.80;100.00
48364;BME280;34170;54.364;18.582;2023-11-19T02:17:39;100639.34;;;1.92;100.00
48364;BME280;34170;54.364;18.582;2023-11-19T02:20:08;100647.59;;;2.03;100.00
48364;BME280;34170;54.364;18.582;2023-11-19T02:22:43;100643.75;;;2.08;100.00
48364;BME280;34170;54.364;18.582;2023-11-19T02:25:19;100627.25;;;1.86;100.00
48364;BME280;34170;54.364;18.582;2023-11-19T02:27:49;100638.66;;;1.88;100.00
48364;BME280;34170;54.364;18.582;2023-11-19T02:30:18;100579.88;;;1.62;100.00
48364;BME280;34170;54.364;18.582;2023-11-19T02:32:46;100573.56;;;1.65;100.00
48364;BME280;34170;54.364;18.582;2023-11-19T02:35:15;100609.28;;;1.91;100.00
48364;BME280;34170;54.364;18.582;2023-11-19T02:37:43;100611.38;;;1.68;100.00
48364;BME280;34170;54.364;18.582;2023-11-19T02:40:12;100609.31;;;1.58;100.00
48364;BME280;34170;54.364;18.582;2023-11-19T02:42:41;100589.97;;;1.21;100.00
48364;BME280;34170;54.364;18.582;2023-11-19T02:45:09;100538.41;;;0.75;100.00
48364;BME280;34170;54.364;18.582;2023-11-19T02:47:41;100582.25;;;0.81;100.00
48364;BME280;34170;54.364;18.582;2023-11-19T02:50:10;100586.34;;;1.06;100.00
48364;BME280;34170;54.364;18.582;2023-11-19T02:52:54;100581.41;;;0.98;100.00
48364;BME280;34170;54.364;18.582;2023-11-19T02:55:24;100574.63;;;0.92;100.00
48364;BME280;34170;54.364;18.582;2023-11-19T02:57:52;100531.78;;;0.67;100.00
48364;BME280;34170;54.364;18.582;2023-11-19T03:00:22;100538.75;;;0.68;100.00
48364;BME280;34170;54.364;18.582;2023-11-19T03:03:01;100532.06;;;0.61;100.00
48364;BME280;34170;54.364;18.582;2023-11-19T03:05:48;100529.59;;;0.75;100.00
48364;BME280;34170;54.364;18.582;2023-11-19T03:08:15;100572.03;;;0.73;100.00
48364;BME280;34170;54.364;18.582;2023-11-19T03:10:46;100565.81;;;0.74;100.00
48364;BME280;34170;54.364;18.582;2023-11-19T03:13:14;100530.31;;;0.42;100.00
48364;BME280;34170;54.364;18.582;2023-11-19T03:15:42;100543.78;;;0.74;100.00
48364;BME280;34170;54.364;18.582;2023-11-19T03:18:10;100514.84;;;0.52;100.00
48364;BME280;34170;54.364;18.582;2023-11-19T03:20:38;100551.56;;;0.77;100.00
48364;BME280;34170;54.364;18.582;2023-11-19T03:23:05;100542.94;;;0.73;100.00
48364;BME280;34170;54.364;18.582;2023-11-19T03:25:33;100532.66;;;0.48;100.00
48364;BME280;34170;54.364;18.582;2023-11-19T03:28:02;100536.88;;;0.52;100.00
48364;BME280;34170;54.364;18.582;2023-11-19T03:30:31;100494.88;;;0.64;100.00
48364;BME280;34170;54.364;18.582;2023-11-19T03:33:01;100518.63;;;0.65;100.00
48364;BME280;34170;54.364;18.582;2023-11-19T03:35:29;100518.69;;;0.64;100.00
48364;BME280;34170;54.364;18.582;2023-11-19T03:37:57;100524.56;;;0.51;100.00
48364;BME280;34170;54.364;18.582;2023-11-19T03:40:25;100467.00;;;0.56;100.00
48364;BME280;34170;54.364;18.582;2023-11-19T03:42:53;100471.03;;;0.46;100.00
48364;BME280;34170;54.364;18.582;2023-11-19T03:45:22;100511.22;;;0.89;100.00
48364;BME280;34170;54.364;18.582;2023-11-19T03:47:50;100494.19;;;0.41;100.00
48364;BME280;34170;54.364;18.582;2023-11-19T03:50:18;100449.56;;;0.16;100.00
48364;BME280;34170;54.364;18.582;2023-11-19T03:52:47;100502.31;;;0.38;100.00
48364;BME280;34170;54.364;18.582;2023-11-19T03:55:15;100491.84;;;0.54;100.00
48364;BME280;34170;54.364;18.582;2023-11-19T03:57:43;100445.13;;;0.53;100.00
48364;BME280;34170;54.364;18.582;2023-11-19T04:00:11;100448.09;;;0.47;100.00
48364;BME280;34170;54.364;18.582;2023-11-19T04:02:41;100422.25;;;-0.02;100.00
48364;BME280;34170;54.364;18.582;2023-11-19T04:05:09;100465.09;;;0.41;100.00
48364;BME280;34170;54.364;18.582;2023-11-19T04:07:37;100463.03;;;0.65;100.00
48364;BME280;34170;54.364;18.582;2023-11-19T04:10:05;100419.34;;;0.39;100.00
48364;BME280;34170;54.364;18.582;2023-11-19T04:12:32;100429.47;;;0.48;100.00
48364;BME280;34170;54.364;18.582;2023-11-19T04:15:00;100423.84;;;0.37;100.00
48364;BME280;34170;54.364;18.582;2023-11-19T04:17:28;100452.09;;;0.89;100.00
48364;BME280;34170;54.364;18.582;2023-11-19T04:19:56;100445.47;;;0.98;100.00
48364;BME280;34170;54.364;18.582;2023-11-19T04:22:24;100389.16;;;0.43;100.00
48364;BME280;34170;54.364;18.582;2023-11-19T04:24:51;100432.44;;;0.77;100.00
48364;BME280;34170;54.364;18.582;2023-11-19T04:27:19;100427.13;;;0.42;100.00
48364;BME280;34170;54.364;18.582;2023-11-19T04:29:47;100424.19;;;0.31;100.00
48364;BME280;34170;54.364;18.582;2023-11-19T04:32:14;100420.59;;;0.49;100.00
48364;BME280;34170;54.364;18.582;2023-11-19T04:34:42;100380.44;;;0.24;100.00
48364;BME280;34170;54.364;18.582;2023-11-19T04:37:11;100413.75;;;0.63;100.00
48364;BME280;34170;54.364;18.582;2023-11-19T04:39:40;100414.97;;;0.73;100.00
48364;BME280;34170;54.364;18.582;2023-11-19T04:42:08;100379.56;;;0.23;100.00
48364;BME280;34170;54.364;18.582;2023-11-19T04:44:35;100359.09;;;0.44;100.00
48364;BME280;34170;54.364;18.582;2023-11-19T04:47:03;100348.53;;;0.27;100.00
48364;BME280;34170;54.364;18.582;2023-11-19T04:49:31;100389.16;;;0.43;100.00
48364;BME280;34170;54.364;18.582;2023-11-19T04:51:58;100377.09;;;0.55;100.00
48364;BME280;34170;54.364;18.582;2023-11-19T04:54:26;100335.63;;;0.21;100.00
48364;BME280;34170;54.364;18.582;2023-11-19T04:56:53;100364.09;;;0.33;100.00
48364;BME280;34170;54.364;18.582;2023-11-19T04:59:21;100337.94;;;0.27;100.00
48364;BME280;34170;54.364;18.582;2023-11-19T05:01:49;100357.41;;;0.43;100.00
48364;BME280;34170;54.364;18.582;2023-11-19T05:04:17;100366.91;;;0.30;100.00
48364;BME280;34170;54.364;18.582;2023-11-19T05:06:46;100312.22;;;-0.05;100.00
48364;BME280;34170;54.364;18.582;2023-11-19T05:09:14;100344.56;;;0.53;100.00
48364;BME280;34170;54.364;18.582;2023-11-19T05:11:41;100313.59;;;0.37;100.00
48364;BME280;34170;54.364;18.582;2023-11-19T05:14:11;100314.00;;;0.12;100.00
48364;BME280;34170;54.364;18.582;2023-11-19T05:16:40;100357.88;;;0.16;100.00
48364;BME280;34170;54.364;18.582;2023-11-19T05:19:08;100358.72;;;0.17;100.00
48364;BME280;34170;54.364;18.582;2023-11-19T05:21:36;100342.50;;;0.07;100.00
48364;BME280;34170;54.364;18.582;2023-11-19T05:24:04;100352.81;;;0.12;100.00
48364;BME280;34170;54.364;18.582;2023-11-19T05:26:34;100356.16;;;0.33;100.00
48364;BME280;34170;54.364;18.582;2023-11-19T05:29:02;100340.28;;;0.15;100.00
48364;BME280;34170;54.364;18.582;2023-11-19T05:31:30;100333.31;;;0.14;100.00
48364;BME280;34170;54.364;18.582;2023-11-19T05:34:02;100334.31;;;0.12;100.00
48364;BME280;34170;54.364;18.582;2023-11-19T05:36:29;100324.34;;;-0.01;100.00
48364;BME280;34170;54.364;18.582;2023-11-19T05:38:57;100314.16;;;0.09;100.00
48364;BME280;34170;54.364;18.582;2023-11-19T05:41:25;100312.13;;;-0.03;100.00
48364;BME280;34170;54.364;18.582;2023-11-19T05:43:52;100315.50;;;-0.36;100.00
48364;BME280;34170;54.364;18.582;2023-11-19T05:46:20;100318.03;;;-0.15;100.00
48364;BME280;34170;54.364;18.582;2023-11-19T05:48:48;100304.50;;;-0.09;100.00
48364;BME280;34170;54.364;18.582;2023-11-19T05:51:15;100308.84;;;-0.26;100.00
48364;BME280;34170;54.364;18.582;2023-11-19T05:53:44;100310.84;;;-0.31;100.00
48364;BME280;34170;54.364;18.582;2023-11-19T05:56:17;100308.22;;;-0.31;100.00
48364;BME280;34170;54.364;18.582;2023-11-19T05:58:49;100305.81;;;-0.18;100.00
48364;BME280;34170;54.364;18.582;2023-11-19T06:01:16;100304.81;;;-0.15;100.00
48364;BME280;34170;54.364;18.582;2023-11-19T06:03:44;100270.59;;;-0.36;100.00
48364;BME280;34170;54.364;18.582;2023-11-19T06:06:17;100254.75;;;-0.18;100.00
48364;BME280;34170;54.364;18.582;2023-11-19T06:08:45;100291.34;;;-0.11;100.00
48364;BME280;34170;54.364;18.582;2023-11-19T06:11:14;100253.88;;;-0.36;100.00
48364;BME280;34170;54.364;18.582;2023-11-19T06:13:46;100274.63;;;-0.29;100.00
48364;BME280;34170;54.364;18.582;2023-11-19T06:16:15;100277.44;;;-0.14;100.00
48364;BME280;34170;54.364;18.582;2023-11-19T06:18:43;100289.03;;;-0.17;100.00
48364;BME280;34170;54.364;18.582;2023-11-19T06:21:12;100246.72;;;-0.34;100.00
48364;BME280;34170;54.364;18.582;2023-11-19T06:23:40;100239.09;;;-0.58;100.00
48364;BME280;34170;54.364;18.582;2023-11-19T06:26:07;100223.84;;;-0.70;100.00
48364;BME280;34170;54.364;18.582;2023-11-19T06:28:36;100246.09;;;-0.57;100.00
48364;BME280;34170;54.364;18.582;2023-11-19T06:31:04;100269.41;;;-0.48;100.00
48364;BME280;34170;54.364;18.582;2023-11-19T06:33:31;100267.94;;;-0.53;100.00
48364;BME280;34170;54.364;18.582;2023-11-19T06:35:59;100282.88;;;-0.35;100.00
48364;BME280;34170;54.364;18.582;2023-11-19T06:38:27;100272.28;;;-0.52;100.00
48364;BME280;34170;54.364;18.582;2023-11-19T06:40:54;100250.59;;;-0.42;100.00
48364;BME280;34170;54.364;18.582;2023-11-19T06:43:22;100260.50;;;0.07;100.00
48364;BME280;34170;54.364;18.582;2023-11-19T06:45:49;100245.72;;;-0.14;100.00
48364;BME280;34170;54.364;18.582;2023-11-19T06:48:17;100246.53;;;-0.12;100.00
48364;BME280;34170;54.364;18.582;2023-11-19T06:50:44;100248.03;;;-0.43;100.00
48364;BME280;34170;54.364;18.582;2023-11-19T06:53:12;100212.91;;;-0.45;100.00
48364;BME280;34170;54.364;18.582;2023-11-19T06:55:39;100243.53;;;-0.24;100.00
48364;BME280;34170;54.364;18.582;2023-11-19T06:58:08;100240.28;;;-0.46;100.00
48364;BME280;34170;54.364;18.582;2023-11-19T07:00:35;100238.34;;;-0.25;100.00
48364;BME280;34170;54.364;18.582;2023-11-19T07:03:03;100228.94;;;-0.31;100.00
48364;BME280;34170;54.364;18.582;2023-11-19T07:05:36;100225.50;;;-0.50;100.00
48364;BME280;34170;54.364;18.582;2023-11-19T07:08:06;100225.44;;;-0.14;100.00
48364;BME280;34170;54.364;18.582;2023-11-19T07:10:34;100223.13;;;0.31;100.00
48364;BME280;34170;54.364;18.582;2023-11-19T07:13:04;100224.41;;;0.06;100.00
48364;BME280;34170;54.364;18.582;2023-11-19T07:15:33;100225.22;;;-0.27;100.00
48364;BME280;34170;54.364;18.582;2023-11-19T07:18:03;100213.31;;;0.33;100.00
48364;BME280;34170;54.364;18.582;2023-11-19T07:20:31;100214.13;;;0.17;100.00
48364;BME280;34170;54.364;18.582;2023-11-19T07:23:00;100201.84;;;0.16;100.00
48364;BME280;34170;54.364;18.582;2023-11-19T07:25:28;100203.69;;;0.48;100.00
48364;BME280;34170;54.364;18.582;2023-11-19T07:27:55;100205.28;;;-0.16;100.00
48364;BME280;34170;54.364;18.582;2023-11-19T07:30:23;100189.69;;;0.12;100.00
48364;BME280;34170;54.364;18.582;2023-11-19T07:32:51;100207.81;;;0.20;100.00
48364;BME280;34170;54.364;18.582;2023-11-19T07:35:18;100147.69;;;0.24;100.00
48364;BME280;34170;54.364;18.582;2023-11-19T07:37:46;100184.88;;;0.21;100.00
48364;BME280;34170;54.364;18.582;2023-11-19T07:40:15;100138.28;;;0.18;100.00
48364;BME280;34170;54.364;18.582;2023-11-19T07:42:42;100141.91;;;-0.01;100.00
48364;BME280;34170;54.364;18.582;2023-11-19T07:45:11;100145.00;;;0.08;100.00
48364;BME280;34170;54.364;18.582;2023-11-19T07:47:38;100160.59;;;0.12;100.00
48364;BME280;34170;54.364;18.582;2023-11-19T07:50:06;100157.69;;;0.34;100.00
48364;BME280;34170;54.364;18.582;2023-11-19T07:52:34;100161.69;;;0.26;100.00
48364;BME280;34170;54.364;18.582;2023-11-19T07:55:02;100160.91;;;-0.10;100.00
48364;BME280;34170;54.364;18.582;2023-11-19T07:57:30;100150.91;;;0.13;100.00
48364;BME280;34170;54.364;18.582;2023-11-19T07:59:58;100140.81;;;0.19;100.00
48364;BME280;34170;54.364;18.582;2023-11-19T08:02:25;100111.13;;;-0.02;100.00
48364;BME280;34170;54.364;18.582;2023-11-19T08:04:53;100141.25;;;0.12;100.00
48364;BME280;34170;54.364;18.582;2023-11-19T08:07:22;100103.38;;;-0.22;100.00
48364;BME280;34170;54.364;18.582;2023-11-19T08:09:50;100130.53;;;0.31;100.00
48364;BME280;34170;54.364;18.582;2023-11-19T08:12:18;100135.22;;;0.26;100.00
48364;BME280;34170;54.364;18.582;2023-11-19T08:14:45;100091.44;;;0.04;100.00
48364;BME280;34170;54.364;18.582;2023-11-19T08:17:13;100136.25;;;0.39;100.00
48364;BME280;34170;54.364;18.582;2023-11-19T08:19:41;100139.06;;;0.52;100.00
48364;BME280;34170;54.364;18.582;2023-11-19T08:22:08;100132.94;;;0.51;100.00
48364;BME280;34170;54.364;18.582;2023-11-19T08:24:36;100082.56;;;0.21;100.00
48364;BME280;34170;54.364;18.582;2023-11-19T08:27:04;100111.81;;;0.98;100.00
48364;BME280;34170;54.364;18.582;2023-11-19T08:29:32;100119.69;;;0.83;100.00
48364;BME280;34170;54.364;18.582;2023-11-19T08:32:00;100098.00;;;0.76;100.00
48364;BME280;34170;54.364;18.582;2023-11-19T08:34:29;100074.13;;;0.46;100.00
48364;BME280;34170;54.364;18.582;2023-11-19T08:36:57;100104.13;;;0.93;100.00
48364;BME280;34170;54.364;18.582;2023-11-19T08:39:24;100057.72;;;-0.08;100.00
48364;BME280;34170;54.364;18.582;2023-11-19T08:41:52;100079.59;;;0.43;100.00
48364;BME280;34170;54.364;18.582;2023-11-19T08:44:20;100080.28;;;0.15;100.00
48364;BME280;34170;54.364;18.582;2023-11-19T08:46:48;100078.25;;;0.82;100.00
48364;BME280;34170;54.364;18.582;2023-11-19T08:49:16;100074.28;;;0.11;100.00
48364;BME280;34170;54.364;18.582;2023-11-19T08:51:44;100046.13;;;0.10;100.00
48364;BME280;34170;54.364;18.582;2023-11-19T08:54:12;100058.75;;;0.53;100.00
48364;BME280;34170;54.364;18.582;2023-11-19T08:56:41;100062.69;;;0.46;100.00
48364;BME280;34170;54.364;18.582;2023-11-19T08:59:09;100018.97;;;0.54;100.00
48364;BME280;34170;54.364;18.582;2023-11-19T09:01:37;100031.41;;;0.84;100.00
48364;BME280;34170;54.364;18.582;2023-11-19T09:04:04;100013.56;;;0.72;100.00
48364;BME280;34170;54.364;18.582;2023-11-19T09:06:33;100018.44;;;0.94;100.00
48364;BME280;34170;54.364;18.582;2023-11-19T09:09:00;100052.88;;;0.94;100.00
48364;BME280;34170;54.364;18.582;2023-11-19T09:11:30;100045.06;;;0.61;100.00
48364;BME280;34170;54.364;18.582;2023-11-19T09:13:58;100049.72;;;1.18;100.00
48364;BME280;34170;54.364;18.582;2023-11-19T09:16:26;99999.72;;;0.36;100.00
48364;BME280;34170;54.364;18.582;2023-11-19T09:18:53;100033.06;;;0.85;100.00
48364;BME280;34170;54.364;18.582;2023-11-19T09:21:21;100038.59;;;1.41;100.00
48364;BME280;34170;54.364;18.582;2023-11-19T09:23:49;100026.72;;;0.73;100.00
48364;BME280;34170;54.364;18.582;2023-11-19T09:26:16;100040.66;;;0.61;100.00
48364;BME280;34170;54.364;18.582;2023-11-19T09:28:44;100023.69;;;1.10;100.00
48364;BME280;34170;54.364;18.582;2023-11-19T09:31:16;100017.81;;;0.28;100.00
48364;BME280;34170;54.364;18.582;2023-11-19T09:33:44;99997.25;;;0.02;100.00
48364;BME280;34170;54.364;18.582;2023-11-19T09:36:12;100009.91;;;0.59;100.00
48364;BME280;34170;54.364;18.582;2023-11-19T09:38:41;100005.00;;;0.52;100.00
48364;BME280;34170;54.364;18.582;2023-11-19T09:41:09;99994.13;;;0.57;100.00
48364;BME280;34170;54.364;18.582;2023-11-19T09:43:39;99999.69;;;0.52;100.00
48364;BME280;34170;54.364;18.582;2023-11-19T09:46:09;99987.19;;;1.15;100.00
48364;BME280;34170;54.364;18.582;2023-11-19T09:48:39;99984.25;;;0.75;100.00
48364;BME280;34170;54.364;18.582;2023-11-19T09:51:11;99982.50;;;0.13;100.00
48364;BME280;34170;54.364;18.582;2023-11-19T09:53:39;99983.34;;;0.14;100.00
48364;BME280;34170;54.364;18.582;2023-11-19T09:56:07;99966.69;;;0.44;100.00
48364;BME280;34170;54.364;18.582;2023-11-19T09:58:37;99986.06;;;0.28;100.00
48364;BME280;34170;54.364;18.582;2023-11-19T10:01:05;99982.59;;;0.58;100.00
48364;BME280;34170;54.364;18.582;2023-11-19T10:03:37;99979.56;;;0.34;100.00
48364;BME280;34170;54.364;18.582;2023-11-19T10:06:08;99963.06;;;0.45;100.00
48364;BME280;34170;54.364;18.582;2023-11-19T10:08:37;99935.19;;;0.39;100.00
48364;BME280;34170;54.364;18.582;2023-11-19T10:11:08;99972.81;;;0.74;100.00
48364;BME280;34170;54.364;18.582;2023-11-19T10:13:39;99936.53;;;0.46;100.00
48364;BME280;34170;54.364;18.582;2023-11-19T10:16:12;99905.66;;;0.47;100.00
48364;BME280;34170;54.364;18.582;2023-11-19T10:18:47;99936.38;;;0.49;100.00
48364;BME280;34170;54.364;18.582;2023-11-19T10:21:17;99928.94;;;0.56;100.00
48364;BME280;34170;54.364;18.582;2023-11-19T10:23:55;99920.97;;;0.26;100.00
48364;BME280;34170;54.364;18.582;2023-11-19T10:26:28;99910.72;;;0.94;100.00
48364;BME280;34170;54.364;18.582;2023-11-19T10:28:56;99901.56;;;0.41;100.00
48364;BME280;34170;54.364;18.582;2023-11-19T10:31:24;99904.31;;;0.40;100.00
48364;BME280;34170;54.364;18.582;2023-11-19T10:33:54;99899.69;;;0.43;100.00
48364;BME280;34170;54.364;18.582;2023-11-19T10:36:22;99864.38;;;-0.02;100.00
48364;BME280;34170;54.364;18.582;2023-11-19T10:38:54;99901.28;;;0.15;100.00
48364;BME280;34170;54.364;18.582;2023-11-19T10:41:32;99900.75;;;0.55;100.00
48364;BME280;34170;54.364;18.582;2023-11-19T10:44:00;99892.69;;;0.42;100.00
48364;BME280;34170;54.364;18.582;2023-11-19T10:46:39;99872.63;;;0.68;100.00
48364;BME280;34170;54.364;18.582;2023-11-19T10:49:09;99835.41;;;0.41;100.00
48364;BME280;34170;54.364;18.582;2023-11-19T10:51:45;99867.28;;;0.40;100.00
48364;BME280;34170;54.364;18.582;2023-11-19T10:54:15;99864.13;;;0.33;100.00
48364;BME280;34170;54.364;18.582;2023-11-19T10:56:55;99859.38;;;0.24;100.00
48364;BME280;34170;54.364;18.582;2023-11-19T10:59:23;99845.81;;;0.44;100.00
48364;BME280;34170;54.364;18.582;2023-11-19T11:02:03;99844.34;;;0.69;100.00
48364;BME280;34170;54.364;18.582;2023-11-19T11:04:42;99852.78;;;0.75;100.00
48364;BME280;34170;54.364;18.582;2023-11-19T11:07:11;99792.44;;;0.52;100.00
48364;BME280;34170;54.364;18.582;2023-11-19T11:09:41;99846.44;;;0.92;100.00
48364;BME280;34170;54.364;18.582;2023-11-19T11:12:09;99824.47;;;1.19;100.00
48364;BME280;34170;54.364;18.582;2023-11-19T11:14:38;99827.72;;;0.95;100.00
48364;BME280;34170;54.364;18.582;2023-11-19T11:17:09;99795.72;;;0.41;100.00
48364;BME280;34170;54.364;18.582;2023-11-19T11:19:38;99824.09;;;0.68;100.00
48364;BME280;34170;54.364;18.582;2023-11-19T11:22:07;99815.31;;;1.10;100.00
48364;BME280;34170;54.364;18.582;2023-11-19T11:30:13;99819.03;;;0.79;100.00
48364;BME280;34170;54.364;18.582;2023-11-19T11:38:24;99790.56;;;0.97;100.00
48364;BME280;34170;54.364;18.582;2023-11-19T11:41:18;99787.13;;;1.09;100.00
48364;BME280;34170;54.364;18.582;2023-11-19T11:43:51;99788.00;;;0.81;100.00
48364;BME280;34170;54.364;18.582;2023-11-19T11:49:06;99777.03;;;0.87;100.00
48364;BME280;34170;54.364;18.582;2023-11-19T11:57:12;99733.28;;;0.38;100.00
48364;BME280;34170;54.364;18.582;2023-11-19T12:02:11;99744.66;;;0.97;100.00
48364;BME280;34170;54.364;18.582;2023-11-19T12:04:40;99742.91;;;0.97;100.00
48364;BME280;34170;54.364;18.582;2023-11-19T12:07:12;99714.75;;;0.67;100.00
48364;BME280;34170;54.364;18.582;2023-11-19T12:09:41;99753.97;;;0.61;100.00
48364;BME280;34170;54.364;18.582;2023-11-19T12:12:21;99698.06;;;0.38;100.00
48364;BME280;34170;54.364;18.582;2023-11-19T12:20:10;99689.72;;;0.15;100.00
48364;BME280;34170;54.364;18.582;2023-11-19T12:22:43;99679.34;;;0.55;100.00
48364;BME280;34170;54.364;18.582;2023-11-19T12:25:12;99702.56;;;0.65;100.00
48364;BME280;34170;54.364;18.582;2023-11-19T12:27:48;99661.59;;;0.43;100.00
48364;BME280;34170;54.364;18.582;2023-11-19T12:30:23;99712.75;;;0.85;100.00
48364;BME280;34170;54.364;18.582;2023-11-19T12:32:53;99695.00;;;0.73;100.00
48364;BME280;34170;54.364;18.582;2023-11-19T12:35:24;99681.78;;;0.59;100.00
48364;BME280;34170;54.364;18.582;2023-11-19T12:37:52;99689.50;;;0.76;100.00
48364;BME280;34170;54.364;18.582;2023-11-19T12:40:24;99672.78;;;0.75;100.00
48364;BME280;34170;54.364;18.582;2023-11-19T12:42:53;99669.31;;;0.46;100.00
48364;BME280;34170;54.364;18.582;2023-11-19T12:45:22;99680.06;;;0.72;100.00
48364;BME280;34170;54.364;18.582;2023-11-19T12:48:08;99669.59;;;0.70;100.00
48364;BME280;34170;54.364;18.582;2023-11-19T12:50:56;99625.22;;;0.47;100.00
48364;BME280;34170;54.364;18.582;2023-11-19T12:53:25;99652.94;;;0.68;100.00
48364;BME280;34170;54.364;18.582;2023-11-19T12:55:54;99651.63;;;1.03;100.00
48364;BME280;34170;54.364;18.582;2023-11-19T12:58:29;99657.41;;;0.95;100.00
48364;BME280;34170;54.364;18.582;2023-11-19T13:01:05;99637.59;;;0.88;100.00
48364;BME280;34170;54.364;18.582;2023-11-19T13:03:37;99646.38;;;0.88;100.00
48364;BME280;34170;54.364;18.582;2023-11-19T13:06:11;99625.25;;;0.74;100.00
48364;BME280;34170;54.364;18.582;2023-11-19T13:08:41;99625.06;;;1.17;100.00
48364;BME280;34170;54.364;18.582;2023-11-19T13:11:10;99618.38;;;0.57;100.00
48364;BME280;34170;54.364;18.582;2023-11-19T13:13:57;99616.50;;;0.59;100.00
48364;BME280;34170;54.364;18.582;2023-11-19T13:16:27;99613.41;;;1.20;100.00
48364;BME280;34170;54.364;18.582;2023-11-19T13:18:56;99590.31;;;0.54;100.00